Time;durP1;ratioP1;P1;durP2;ratioP2;P2;SDS_P1;SDS_P2;PMS_P1;PMS_P2;Temp;Humidity;BMP_temperature;BMP_pressure;BME280_temperature;BME280_humidity;BME280_pressure;Samples;Min_cycle;Max_cycle;Signal;HPM_P1;HPM_P2
2021/04/08 00:01:53;;;;;;;10.75;1.42;;;2.50;96.70;;;;;;4976071;28;20026;-87
2021/04/08 00:04:18;;;;;;;6.93;1.30;;;2.40;96.60;;;;;;4975425;28;20034;-87
2021/04/08 00:06:44;;;;;;;7.07;1.45;;;2.40;96.60;;;;;;4991808;28;20034;-88
2021/04/08 00:09:10;;;;;;;2.67;0.88;;;2.40;96.60;;;;;;4975430;28;20030;-87
2021/04/08 00:11:35;;;;;;;5.40;1.13;;;2.50;96.60;;;;;;4993329;28;20030;-88
2021/04/08 00:14:01;;;;;;;8.30;1.40;;;2.40;96.60;;;;;;4975766;28;20026;-87
2021/04/08 00:16:27;;;;;;;6.80;1.23;;;2.40;96.60;;;;;;4974833;28;20026;-87
2021/04/08 00:18:52;;;;;;;7.30;1.25;;;2.40;96.60;;;;;;4992928;28;20035;-87
2021/04/08 00:21:18;;;;;;;8.35;1.40;;;2.40;96.60;;;;;;4991787;28;20018;-87
2021/04/08 00:23:43;;;;;;;8.07;1.35;;;2.40;96.50;;;;;;4975565;28;20473;-87
2021/04/08 00:26:09;;;;;;;5.82;1.30;;;2.40;96.50;;;;;;4991818;28;20027;-88
2021/04/08 00:28:35;;;;;;;7.72;1.13;;;2.40;96.60;;;;;;4991303;28;20030;-87
2021/04/08 00:31:00;;;;;;;4.95;1.55;;;2.40;96.60;;;;;;4962558;28;20081;-88
2021/04/08 00:33:26;;;;;;;4.25;1.20;;;2.30;96.50;;;;;;4969633;28;20399;-87
2021/04/08 00:35:52;;;;;;;5.35;1.25;;;2.30;96.50;;;;;;5006636;28;20185;-87
2021/04/08 00:38:17;;;;;;;8.40;1.40;;;2.30;96.50;;;;;;4994811;28;20036;-86
2021/04/08 00:40:44;;;;;;;7.45;2.22;;;2.30;96.60;;;;;;4994758;28;20492;-86
2021/04/08 00:43:10;;;;;;;5.07;1.30;;;2.30;96.50;;;;;;5012263;28;20077;-86
2021/04/08 00:45:35;;;;;;;4.60;1.27;;;2.30;96.50;;;;;;4994516;28;20061;-87
2021/04/08 00:48:02;;;;;;;5.43;1.27;;;2.30;96.50;;;;;;4983189;28;20018;-86
2021/04/08 00:50:28;;;;;;;6.53;1.50;;;2.30;96.50;;;;;;4993440;28;20033;-86
2021/04/08 00:53:05;;;;;;;6.45;1.20;;;2.30;96.40;;;;;;4979480;28;20026;-87
2021/04/08 00:55:40;;;;;;;3.05;1.30;;;2.30;96.50;;;;;;4983295;28;20037;-87
2021/04/08 00:58:06;;;;;;;7.65;1.50;;;2.30;96.60;;;;;;4998767;28;20072;-87
2021/04/08 01:00:34;;;;;;;4.15;1.40;;;2.30;96.50;;;;;;4979549;28;20045;-87
2021/04/08 01:03:00;;;;;;;5.38;1.40;;;2.30;96.60;;;;;;4988016;28;20048;-86
2021/04/08 01:05:27;;;;;;;6.10;1.40;;;2.30;96.50;;;;;;4982120;28;20038;-87
2021/04/08 01:07:53;;;;;;;8.18;2.00;;;2.30;96.50;;;;;;4982192;28;20142;-86
2021/04/08 01:10:21;;;;;;;6.63;1.80;;;2.30;96.60;;;;;;4997934;28;20138;-87
2021/04/08 01:12:49;;;;;;;5.50;1.77;;;2.20;96.60;;;;;;5015728;28;20025;-88
2021/04/08 01:15:15;;;;;;;6.18;1.75;;;2.30;96.70;;;;;;5015454;28;20026;-87
2021/04/08 01:17:50;;;;;;;7.78;2.20;;;2.30;96.60;;;;;;4982161;28;20056;-87
2021/04/08 01:20:55;;;;;;;5.43;2.10;;;2.30;96.70;;;;;;4998134;28;20025;-87
2021/04/08 01:23:29;;;;;;;10.05;2.70;;;2.30;96.70;;;;;;4993317;28;20419;-86
2021/04/08 01:26:17;;;;;;;9.13;2.95;;;2.20;96.60;;;;;;5015541;28;20098;-86
2021/04/08 01:28:47;;;;;;;8.00;2.40;;;2.20;96.70;;;;;;5015869;28;20037;-86
2021/04/08 01:31:16;;;;;;;8.75;2.58;;;2.20;96.70;;;;;;5015525;28;20469;-87
2021/04/08 01:33:46;;;;;;;6.30;2.50;;;2.20;96.70;;;;;;5015138;28;20026;-86
2021/04/08 01:36:19;;;;;;;7.20;2.65;;;2.20;96.80;;;;;;4996894;28;20077;-87
2021/04/08 01:39:04;;;;;;;9.30;2.45;;;2.20;96.70;;;;;;5015186;28;20057;-87
2021/04/08 01:41:36;;;;;;;10.77;2.65;;;2.20;96.70;;;;;;5001518;28;20032;-87
2021/04/08 01:44:03;;;;;;;5.53;2.17;;;2.30;96.90;;;;;;5015545;28;20021;-86
2021/04/08 01:46:31;;;;;;;8.00;2.08;;;2.20;96.80;;;;;;5001245;28;20033;-86
2021/04/08 01:49:00;;;;;;;5.15;1.73;;;2.20;96.80;;;;;;4980530;28;20049;-85
2021/04/08 01:51:28;;;;;;;7.05;3.38;;;2.20;96.80;;;;;;4997466;28;20036;-87
2021/04/08 01:53:57;;;;;;;5.70;1.60;;;2.20;96.70;;;;;;4997972;28;20030;-87
2021/04/08 01:56:33;;;;;;;5.05;1.80;;;2.20;96.70;;;;;;5014551;28;20485;-87
2021/04/08 01:59:00;;;;;;;6.47;1.42;;;2.20;96.80;;;;;;5001732;28;20038;-87
2021/04/08 02:01:26;;;;;;;4.57;1.60;;;2.20;96.80;;;;;;4984967;28;20022;-86
2021/04/08 02:03:52;;;;;;;6.13;1.42;;;2.20;96.80;;;;;;4995748;28;20022;-87
2021/04/08 02:06:23;;;;;;;7.00;1.40;;;2.20;96.80;;;;;;5014862;28;20030;-87
2021/04/08 02:08:50;;;;;;;5.10;1.67;;;2.20;96.90;;;;;;4997051;28;20021;-86
2021/04/08 02:11:16;;;;;;;7.50;1.40;;;2.20;97.10;;;;;;4997156;28;20037;-87
2021/04/08 02:13:45;;;;;;;7.20;2.08;;;2.30;96.90;;;;;;5012972;28;20026;-86
2021/04/08 02:16:11;;;;;;;7.97;1.70;;;2.20;96.90;;;;;;4996715;28;20034;-87
2021/04/08 02:18:40;;;;;;;5.50;2.00;;;2.20;96.80;;;;;;4977696;28;20121;-86
2021/04/08 02:21:07;;;;;;;3.05;1.02;;;2.30;96.90;;;;;;4996703;28;20487;-86
2021/04/08 02:23:35;;;;;;;9.32;1.70;;;2.40;96.90;;;;;;4996618;28;20073;-86
2021/04/08 02:26:02;;;;;;;6.82;1.10;;;2.30;96.90;;;;;;4980985;28;20030;-86
2021/04/08 02:28:31;;;;;;;4.57;1.40;;;2.30;96.90;;;;;;4980853;28;20040;-87
2021/04/08 02:30:58;;;;;;;5.70;1.30;;;2.30;96.90;;;;;;5014728;28;20030;-86
2021/04/08 02:33:27;;;;;;;7.20;1.75;;;2.30;96.90;;;;;;4996254;28;20021;-86
2021/04/08 02:35:54;;;;;;;3.67;1.20;;;2.30;96.90;;;;;;4984082;28;20026;-87
2021/04/08 02:38:29;;;;;;;3.35;1.38;;;2.30;96.90;;;;;;4980394;28;20471;-87
2021/04/08 02:40:57;;;;;;;4.85;1.50;;;2.30;96.90;;;;;;5010904;28;20097;-85
2021/04/08 02:43:23;;;;;;;7.30;1.35;;;2.40;96.90;;;;;;5013687;28;20026;-87
2021/04/08 02:45:48;;;;;;;5.35;1.67;;;2.30;96.90;;;;;;4996458;28;20033;-87
2021/04/08 02:48:16;;;;;;;4.10;1.40;;;2.40;97.00;;;;;;4996485;28;20104;-87
2021/04/08 02:50:43;;;;;;;4.45;1.20;;;2.40;97.00;;;;;;4980188;28;20037;-87
2021/04/08 02:53:40;;;;;;;4.50;1.17;;;2.40;96.90;;;;;;4979974;28;20037;-86
2021/04/08 02:56:15;;;;;;;6.75;1.35;;;2.40;96.90;;;;;;5010778;28;20081;-87
2021/04/08 02:58:44;;;;;;;2.35;0.98;;;2.40;96.90;;;;;;5004931;28;20088;-87
2021/04/08 03:01:19;;;;;;;3.08;1.10;;;2.40;96.90;;;;;;5013489;28;20096;-87
2021/04/08 03:03:52;;;;;;;5.20;0.90;;;2.40;96.90;;;;;;5013904;28;20044;-87
2021/04/08 03:06:19;;;;;;;5.50;1.10;;;2.40;97.00;;;;;;5013691;28;20084;-87
2021/04/08 03:08:48;;;;;;;5.03;1.10;;;2.40;97.00;;;;;;5013843;28;20041;-87
2021/04/08 03:11:15;;;;;;;6.78;1.73;;;2.40;97.00;;;;;;4996065;28;20069;-87
2021/04/08 03:13:44;;;;;;;4.20;1.20;;;2.40;97.00;;;;;;4996816;28;20108;-87
2021/04/08 03:16:19;;;;;;;4.82;1.10;;;2.40;97.00;;;;;;5012513;28;20037;-87
2021/04/08 03:18:47;;;;;;;3.83;0.98;;;2.40;97.00;;;;;;4996405;28;20022;-87
2021/04/08 03:21:14;;;;;;;5.70;1.10;;;2.50;97.00;;;;;;4996427;28;20037;-87
2021/04/08 03:23:42;;;;;;;3.97;1.23;;;2.40;97.00;;;;;;5013472;28;20026;-87
2021/04/08 03:26:08;;;;;;;7.65;1.50;;;2.50;97.10;;;;;;4996133;28;20060;-86
2021/04/08 03:28:37;;;;;;;3.40;0.95;;;2.40;97.00;;;;;;4962101;28;20027;-87
2021/04/08 03:31:04;;;;;;;3.05;1.10;;;2.50;97.00;;;;;;5003816;28;20238;-86
2021/04/08 03:33:35;;;;;;;2.33;0.90;;;2.50;97.00;;;;;;4995514;28;20022;-87
2021/04/08 03:36:02;;;;;;;4.07;1.00;;;2.50;97.30;;;;;;4995993;28;20037;-87
2021/04/08 03:38:28;;;;;;;5.97;1.10;;;2.50;97.00;;;;;;5013282;28;20058;-87
2021/04/08 03:40:58;;;;;;;4.07;1.40;;;2.50;97.10;;;;;;4995565;28;20415;-87
2021/04/08 03:43:25;;;;;;;5.28;1.00;;;2.50;97.00;;;;;;4982294;28;20026;-87
2021/04/08 03:45:51;;;;;;;3.55;1.15;;;2.50;97.00;;;;;;4982470;28;20474;-87
2021/04/08 03:48:18;;;;;;;5.10;1.60;;;2.50;97.00;;;;;;5013113;28;20034;-87
2021/04/08 03:50:47;;;;;;;3.40;1.00;;;2.50;97.00;;;;;;4963246;28;20386;-87
2021/04/08 03:53:14;;;;;;;5.18;1.40;;;2.50;96.90;;;;;;4995327;28;20072;-86
2021/04/08 03:55:40;;;;;;;5.90;1.40;;;2.50;97.00;;;;;;4995258;28;20040;-87
2021/04/08 03:58:08;;;;;;;3.92;1.77;;;2.50;97.00;;;;;;4995589;28;20026;-87
2021/04/08 04:00:35;;;;;;;3.38;1.50;;;2.50;97.10;;;;;;4995307;28;20022;-86
2021/04/08 04:03:01;;;;;;;6.47;2.08;;;2.50;97.10;;;;;;5012976;28;20022;-87
2021/04/08 04:05:27;;;;;;;8.48;1.52;;;2.50;97.10;;;;;;4978910;28;20500;-87
2021/04/08 04:07:53;;;;;;;6.75;1.70;;;2.50;97.10;;;;;;4979108;28;20129;-87
2021/04/08 04:10:21;;;;;;;6.10;1.58;;;2.50;97.10;;;;;;4994809;28;20068;-87
2021/04/08 04:12:49;;;;;;;2.83;1.58;;;2.50;97.10;;;;;;4995665;28;21484;-87
2021/04/08 04:15:16;;;;;;;3.92;1.10;;;2.50;97.10;;;;;;5013091;28;20117;-87
2021/04/08 04:17:42;;;;;;;4.43;1.52;;;2.50;97.10;;;;;;4979176;28;20536;-87
2021/04/08 04:20:09;;;;;;;3.05;1.30;;;2.50;97.10;;;;;;5012702;28;20030;-87
2021/04/08 04:22:39;;;;;;;4.57;1.70;;;2.50;97.10;;;;;;5012329;28;20036;-87
2021/04/08 04:25:06;;;;;;;6.32;1.40;;;2.60;97.10;;;;;;4979747;28;20034;-87
2021/04/08 04:27:32;;;;;;;7.53;1.50;;;2.60;97.10;;;;;;4997294;28;20026;-87
2021/04/08 04:29:58;;;;;;;2.78;1.35;;;2.50;97.20;;;;;;4982665;28;20030;-87
2021/04/08 04:32:23;;;;;;;5.72;1.42;;;2.60;97.20;;;;;;5016950;28;20040;-87
2021/04/08 04:34:49;;;;;;;6.43;1.65;;;2.60;97.20;;;;;;4982852;28;20402;-87
2021/04/08 04:37:14;;;;;;;3.67;1.90;;;2.50;97.10;;;;;;4995626;28;20055;-86
2021/04/08 04:39:40;;;;;;;6.55;1.80;;;2.50;97.10;;;;;;4963055;28;20030;-86
2021/04/08 04:42:07;;;;;;;5.22;1.58;;;2.60;97.10;;;;;;4996220;28;20428;-87
2021/04/08 04:44:33;;;;;;;4.75;1.60;;;2.60;97.20;;;;;;4996418;28;20121;-87
2021/04/08 04:47:00;;;;;;;4.10;1.45;;;2.60;97.20;;;;;;4980270;28;20023;-87
2021/04/08 04:49:26;;;;;;;7.57;1.92;;;2.60;97.20;;;;;;4996579;28;20138;-87
2021/04/08 04:51:52;;;;;;;9.35;2.03;;;2.60;97.20;;;;;;4979608;28;20075;-86
2021/04/08 04:54:18;;;;;;;7.05;1.90;;;2.60;97.20;;;;;;4995410;28;20512;-86
2021/04/08 04:56:43;;;;;;;7.53;1.88;;;2.60;97.20;;;;;;4995856;28;20113;-87
2021/04/08 04:59:09;;;;;;;4.07;1.60;;;2.60;97.20;;;;;;4993065;28;20056;-87
2021/04/08 05:01:35;;;;;;;5.75;1.52;;;2.60;97.20;;;;;;4983661;28;20113;-86
2021/04/08 05:04:01;;;;;;;7.13;2.33;;;2.60;97.20;;;;;;4994983;28;20041;-87
2021/04/08 05:06:26;;;;;;;4.57;1.60;;;2.60;97.20;;;;;;4995758;28;20125;-87
2021/04/08 05:08:52;;;;;;;6.72;2.00;;;2.70;97.20;;;;;;4979022;28;20137;-87
2021/04/08 05:11:18;;;;;;;4.88;2.00;;;2.60;97.20;;;;;;4978622;28;20416;-86
2021/04/08 05:13:44;;;;;;;4.68;1.92;;;2.70;97.20;;;;;;4985529;28;20105;-87
2021/04/08 05:16:09;;;;;;;6.65;1.75;;;2.70;97.20;;;;;;4991559;28;20092;-87
2021/04/08 05:18:35;;;;;;;3.95;1.98;;;2.60;97.20;;;;;;4987041;28;20030;-87
2021/04/08 05:21:01;;;;;;;6.00;2.00;;;2.70;97.20;;;;;;4977766;28;20030;-87
2021/04/08 05:23:26;;;;;;;4.05;1.88;;;2.70;97.30;;;;;;4965388;28;20382;-87
2021/04/08 05:25:52;;;;;;;3.92;1.73;;;2.70;97.20;;;;;;4978351;28;20034;-88
2021/04/08 05:28:19;;;;;;;5.10;2.00;;;2.70;97.20;;;;;;4975329;28;20027;-87
2021/04/08 05:30:45;;;;;;;6.28;2.28;;;2.70;97.20;;;;;;4986031;28;20031;-89
2021/04/08 05:33:11;;;;;;;6.10;1.92;;;2.70;97.20;;;;;;4994887;28;20027;-88
2021/04/08 05:35:37;;;;;;;8.07;2.22;;;2.70;97.30;;;;;;4978285;28;20072;-88
2021/04/08 05:38:03;;;;;;;9.20;2.72;;;2.70;97.20;;;;;;4994663;28;20417;-87
2021/04/08 05:40:29;;;;;;;10.32;4.00;;;2.70;97.30;;;;;;4989037;28;20019;-85
2021/04/08 05:42:55;;;;;;;9.45;3.90;;;2.70;97.30;;;;;;4976658;28;20022;-87
2021/04/08 05:45:21;;;;;;;9.00;3.88;;;2.80;97.30;;;;;;4964146;28;20088;-88
2021/04/08 05:47:48;;;;;;;9.75;4.57;;;2.70;97.30;;;;;;4994757;28;20466;-87
2021/04/08 05:50:15;;;;;;;7.82;4.25;;;2.70;97.30;;;;;;4975408;28;20039;-89
2021/04/08 05:52:41;;;;;;;13.13;4.50;;;2.80;97.30;;;;;;4996273;28;20022;-89
2021/04/08 05:55:07;;;;;;;11.70;4.15;;;2.80;97.40;;;;;;4978977;28;20481;-88
2021/04/08 05:57:33;;;;;;;8.50;3.70;;;2.80;97.30;;;;;;4995381;28;20014;-88
2021/04/08 05:59:59;;;;;;;11.60;4.53;;;2.80;97.30;;;;;;4995514;28;20038;-89
2021/04/08 06:02:25;;;;;;;9.57;4.10;;;2.80;97.30;;;;;;4994382;28;20106;-87
2021/04/08 06:04:50;;;;;;;9.60;4.60;;;2.80;97.30;;;;;;4977749;28;20030;-87
2021/04/08 06:07:16;;;;;;;9.55;4.80;;;2.80;97.30;;;;;;4962235;28;20026;-88
2021/04/08 06:09:42;;;;;;;11.35;4.90;;;2.80;97.20;;;;;;4994092;28;20038;-88
2021/04/08 06:12:09;;;;;;;12.70;4.25;;;2.90;97.30;;;;;;4994659;28;20054;-88
2021/04/08 06:14:36;;;;;;;12.70;4.50;;;2.90;97.30;;;;;;4994777;28;20015;-88
2021/04/08 06:17:02;;;;;;;11.30;4.25;;;2.90;97.30;;;;;;4993688;28;20058;-88
2021/04/08 06:19:27;;;;;;;11.38;4.20;;;2.90;97.30;;;;;;4993371;28;20034;-89
2021/04/08 06:21:53;;;;;;;14.52;5.28;;;2.90;97.20;;;;;;4994810;28;20031;-88
2021/04/08 06:24:19;;;;;;;7.82;4.00;;;2.90;97.10;;;;;;4994081;28;20061;-88
2021/04/08 06:26:45;;;;;;;9.45;4.20;;;2.90;97.10;;;;;;4993606;28;20026;-88
2021/04/08 06:29:11;;;;;;;11.40;3.90;;;2.90;97.10;;;;;;4974671;28;20039;-87
2021/04/08 06:31:36;;;;;;;9.35;4.10;;;2.90;97.10;;;;;;4974673;28;20114;-88
2021/04/08 06:34:02;;;;;;;14.35;4.40;;;2.90;97.00;;;;;;4974557;28;20058;-88
2021/04/08 06:36:28;;;;;;;8.18;4.05;;;3.00;97.10;;;;;;4988546;28;20031;-89
2021/04/08 06:38:53;;;;;;;9.82;4.38;;;3.00;97.10;;;;;;4981999;28;20493;-87
2021/04/08 06:41:19;;;;;;;9.85;4.35;;;3.00;97.00;;;;;;4994383;28;20113;-87
2021/04/08 06:43:46;;;;;;;10.23;3.78;;;3.00;97.00;;;;;;4993374;28;20038;-88
2021/04/08 06:46:16;;;;;;;8.85;3.67;;;3.00;97.00;;;;;;4993630;28;20474;-90
2021/04/08 06:48:42;;;;;;;11.60;4.43;;;3.00;97.00;;;;;;4993718;28;20037;-89
2021/04/08 06:51:16;;;;;;;9.80;4.03;;;3.00;97.00;;;;;;4988855;28;20034;-88
2021/04/08 06:53:43;;;;;;;8.50;4.00;;;3.00;96.90;;;;;;4988306;28;20027;-88
2021/04/08 06:56:09;;;;;;;11.63;4.45;;;3.10;97.00;;;;;;4977740;28;20022;-91
2021/04/08 06:58:37;;;;;;;13.07;4.90;;;3.10;96.90;;;;;;4994433;28;20513;-89
2021/04/08 07:01:07;;;;;;;9.65;5.05;;;3.10;96.80;;;;;;4995234;28;20069;-87
2021/04/08 07:03:34;;;;;;;10.80;4.55;;;3.10;96.80;;;;;;4993288;28;20027;-85
2021/04/08 07:05:59;;;;;;;11.68;4.20;;;3.20;96.90;;;;;;4976338;28;20034;-88
2021/04/08 07:08:28;;;;;;;8.77;3.90;;;3.30;96.80;;;;;;4981639;28;20494;-89
2021/04/08 07:10:54;;;;;;;10.85;4.25;;;3.30;96.80;;;;;;4963739;28;20121;-89
2021/04/08 07:13:19;;;;;;;10.68;4.00;;;3.40;96.80;;;;;;4969403;28;20061;-87
2021/04/08 07:15:45;;;;;;;9.30;3.92;;;3.40;96.70;;;;;;4992565;28;20038;-87
2021/04/08 07:18:11;;;;;;;9.15;4.30;;;3.50;96.70;;;;;;4994028;28;20031;-86
2021/04/08 07:20:37;;;;;;;11.07;4.35;;;3.60;96.60;;;;;;4979416;28;20409;-84
2021/04/08 07:23:15;;;;;;;9.88;4.07;;;3.70;96.50;;;;;;4996072;28;20151;-88
2021/04/08 07:26:10;;;;;;;9.90;3.90;;;3.80;96.60;;;;;;4992360;28;20117;-86
2021/04/08 07:28:38;;;;;;;10.10;3.70;;;3.90;96.40;;;;;;4983908;28;20377;-87
2021/04/08 07:31:26;;;;;;;9.15;3.97;;;4.00;96.40;;;;;;4992602;28;20018;-88
2021/04/08 07:33:54;;;;;;;11.70;3.75;;;4.00;95.80;;;;;;4989707;28;20085;-87
2021/04/08 07:36:31;;;;;;;7.05;3.33;;;4.10;95.60;;;;;;4992556;28;20019;-87
2021/04/08 07:38:57;;;;;;;7.70;3.33;;;4.20;95.40;;;;;;4993041;28;20562;-89
2021/04/08 07:42:00;;;;;;;6.53;2.95;;;4.30;95.10;;;;;;4970833;28;20031;-89
2021/04/08 07:44:25;;;;;;;7.53;3.10;;;4.40;95.00;;;;;;4965773;28;20037;-89
2021/04/08 07:46:51;;;;;;;10.98;3.10;;;4.50;94.30;;;;;;4980470;28;20030;-87
2021/04/08 07:49:33;;;;;;;8.15;3.13;;;4.60;94.10;;;;;;4989360;28;20058;-87
2021/04/08 07:52:35;;;;;;;6.30;3.15;;;4.70;94.10;;;;;;4991529;28;20521;-87
2021/04/08 07:55:23;;;;;;;6.03;2.85;;;4.90;93.40;;;;;;4951485;29;20031;-88
2021/04/08 07:58:06;;;;;;;6.85;2.90;;;5.00;93.10;;;;;;4988958;28;20034;-86
2021/04/08 08:00:37;;;;;;;6.78;3.10;;;5.10;92.50;;;;;;4990548;28;20026;-86
2021/04/08 08:03:08;;;;;;;7.88;3.08;;;5.20;92.90;;;;;;4992097;28;20030;-86
2021/04/08 08:05:42;;;;;;;7.72;2.80;;;5.20;92.70;;;;;;4989706;28;20022;-85
2021/04/08 08:08:12;;;;;;;7.63;2.90;;;5.30;91.70;;;;;;4990790;28;20026;-86
2021/04/08 08:10:40;;;;;;;6.20;3.10;;;5.30;91.30;;;;;;4991413;28;20023;-86
2021/04/08 08:13:31;;;;;;;5.80;2.70;;;5.40;91.50;;;;;;4992137;28;20031;-87
2021/04/08 08:15:58;;;;;;;5.20;2.58;;;5.40;90.10;;;;;;4990339;28;20106;-88
2021/04/08 08:18:51;;;;;;;5.80;2.92;;;5.50;90.30;;;;;;4988895;28;20026;-86
2021/04/08 08:21:20;;;;;;;6.45;2.63;;;5.60;88.90;;;;;;4988434;28;20041;-86
2021/04/08 08:23:54;;;;;;;5.70;2.63;;;5.60;89.10;;;;;;4992084;28;20033;-86
2021/04/08 08:26:28;;;;;;;6.43;2.70;;;5.70;88.40;;;;;;4990213;28;20015;-87
2021/04/08 08:29:00;;;;;;;6.78;2.80;;;5.80;89.50;;;;;;4991493;28;20037;-87
2021/04/08 08:31:33;;;;;;;5.05;2.72;;;6.00;90.20;;;;;;4988836;28;20026;-85
2021/04/08 08:34:02;;;;;;;6.53;2.80;;;6.00;90.30;;;;;;4990276;28;20053;-85
2021/04/08 08:36:30;;;;;;;6.07;2.20;;;6.10;88.00;;;;;;4991444;28;20042;-86
2021/04/08 08:38:58;;;;;;;3.65;2.22;;;6.30;85.90;;;;;;5007675;28;20119;-85
2021/04/08 08:41:24;;;;;;;6.65;2.65;;;6.40;84.10;;;;;;5008608;28;20057;-86
2021/04/08 08:43:50;;;;;;;3.65;2.00;;;6.50;84.60;;;;;;4976805;28;20069;-84
2021/04/08 08:46:16;;;;;;;7.78;2.20;;;6.60;81.90;;;;;;4979630;28;20140;-84
2021/04/08 08:48:43;;;;;;;5.68;2.42;;;6.80;80.80;;;;;;5010213;28;20041;-84
2021/04/08 08:51:08;;;;;;;5.25;1.90;;;6.90;81.30;;;;;;4992873;28;20033;-84
2021/04/08 08:53:34;;;;;;;6.85;2.20;;;7.00;79.30;;;;;;5012678;28;20038;-85
2021/04/08 08:56:00;;;;;;;7.25;2.42;;;7.10;79.60;;;;;;4993095;28;20052;-85
2021/04/08 08:58:27;;;;;;;5.55;2.25;;;7.20;80.00;;;;;;5010575;28;20117;-83
2021/04/08 09:00:56;;;;;;;5.35;2.13;;;7.30;81.80;;;;;;5007424;28;20021;-83
2021/04/08 09:03:22;;;;;;;5.32;2.78;;;7.40;81.70;;;;;;5006657;28;20477;-85
2021/04/08 09:05:49;;;;;;;7.57;2.50;;;7.40;76.10;;;;;;4976371;28;20034;-84
2021/04/08 09:08:17;;;;;;;5.05;2.25;;;7.40;76.90;;;;;;4974469;28;20014;-85
2021/04/08 09:10:43;;;;;;;6.50;2.30;;;7.50;78.00;;;;;;4974117;28;20038;-85
2021/04/08 09:13:10;;;;;;;5.20;2.63;;;7.40;72.80;;;;;;5007913;28;20534;-86
2021/04/08 09:15:37;;;;;;;5.28;2.10;;;7.30;73.90;;;;;;4977488;28;20057;-85
2021/04/08 09:18:08;;;;;;;5.30;2.30;;;7.40;73.40;;;;;;4980425;28;20101;-85
2021/04/08 09:20:34;;;;;;;;;;;7.40;74.00;;;;;;5014658;28;20028;-86
2021/04/08 09:23:12;;;;;;;8.73;2.55;;;7.40;75.50;;;;;;4995766;28;19916;-89
2021/04/08 09:25:53;;;;;;;3.53;2.30;;;7.50;74.60;;;;;;4994467;28;20488;-87
2021/04/08 09:28:20;;;;;;;7.22;2.42;;;7.50;73.30;;;;;;4995931;28;20026;-87
2021/04/08 09:31:20;;;;;;;7.13;2.60;;;7.50;71.10;;;;;;4992391;28;20068;-87
2021/04/08 09:33:42;;;;;;;7.18;2.20;;;7.60;67.80;;;;;;5010391;28;20497;-87
2021/04/08 09:36:20;;;;;;;7.78;2.80;;;7.60;68.30;;;;;;4996880;28;20425;-86
2021/04/08 09:38:55;;;;;;;6.10;2.58;;;7.70;71.10;;;;;;5013134;28;20143;-88
2021/04/08 09:41:44;;;;;;;5.70;2.63;;;7.70;72.60;;;;;;5010452;28;20025;-87
2021/04/08 09:44:11;;;;;;;8.48;2.95;;;7.90;66.60;;;;;;4993682;28;20093;-86
2021/04/08 09:46:40;;;;;;;5.90;2.90;;;7.90;68.20;;;;;;5005802;28;20022;-86
2021/04/08 09:49:05;;;;;;;6.13;2.97;;;8.10;69.80;;;;;;5010756;28;20112;-86
2021/04/08 09:51:38;;;;;;;6.13;2.75;;;8.10;65.70;;;;;;4988154;28;20026;-85
2021/04/08 09:54:12;;;;;;;5.97;2.53;;;8.20;68.50;;;;;;5013360;28;20050;-86
2021/04/08 09:56:41;;;;;;;7.45;2.65;;;8.40;62.70;;;;;;4989969;28;20061;-86
2021/04/08 09:59:06;;;;;;;7.65;2.88;;;8.40;61.20;;;;;;4992764;28;20025;-85
2021/04/08 10:01:32;;;;;;;5.63;2.80;;;8.50;60.70;;;;;;4991221;28;20034;-86
2021/04/08 10:04:13;;;;;;;7.03;2.65;;;8.50;61.60;;;;;;4973633;28;20030;-85
2021/04/08 10:06:38;;;;;;;5.88;3.00;;;8.50;63.70;;;;;;5013305;28;20056;-86
2021/04/08 10:09:09;;;;;;;8.30;2.97;;;8.50;61.00;;;;;;5012360;28;20038;-85
2021/04/08 10:11:35;;;;;;;7.85;2.65;;;8.50;58.90;;;;;;4990309;28;20478;-84
2021/04/08 10:14:13;;;;;;;5.82;2.75;;;8.50;61.80;;;;;;4991583;28;20026;-84
2021/04/08 10:16:39;;;;;;;5.28;3.20;;;8.40;62.00;;;;;;4992043;28;20014;-85
2021/04/08 10:19:05;;;;;;;7.10;3.38;;;8.50;61.30;;;;;;4992338;28;20030;-85
2021/04/08 10:21:30;;;;;;;6.53;3.10;;;8.50;62.30;;;;;;4992051;28;20026;-87
2021/04/08 10:23:56;;;;;;;6.25;3.42;;;8.60;57.30;;;;;;4970677;28;20113;-86
2021/04/08 10:26:32;;;;;;;8.30;3.40;;;8.50;57.80;;;;;;4979210;28;20061;-86
2021/04/08 10:28:59;;;;;;;10.95;3.67;;;8.50;55.80;;;;;;4977989;28;20034;-85
2021/04/08 10:31:29;;;;;;;7.47;3.80;;;8.40;58.50;;;;;;5013084;28;20030;-86
2021/04/08 10:34:07;;;;;;;5.53;3.25;;;8.40;59.30;;;;;;4974825;28;20109;-86
2021/04/08 10:36:55;;;;;;;6.47;4.30;;;8.50;59.40;;;;;;4987558;28;20045;-86
2021/04/08 10:39:22;;;;;;;5.40;4.07;;;8.50;58.70;;;;;;4987297;28;20046;-88
2021/04/08 10:41:57;;;;;;;5.47;3.47;;;8.50;56.60;;;;;;4992095;28;20045;-87
2021/04/08 10:44:27;;;;;;;8.07;4.18;;;8.50;55.20;;;;;;4993910;28;20030;-86
2021/04/08 10:46:54;;;;;;;5.78;3.17;;;8.50;57.60;;;;;;4993416;28;20018;-88
2021/04/08 10:49:24;;;;;;;7.97;3.75;;;8.50;56.50;;;;;;4992169;28;20050;-85
2021/04/08 10:51:50;;;;;;;6.70;3.72;;;8.50;57.50;;;;;;4993992;28;20019;-87
2021/04/08 10:54:16;;;;;;;6.20;3.60;;;8.50;55.70;;;;;;4993927;28;20031;-87
2021/04/08 10:56:49;;;;;;;7.57;3.92;;;8.50;56.60;;;;;;4994192;28;20022;-88
2021/04/08 10:59:17;;;;;;;6.28;3.35;;;8.50;58.40;;;;;;4989918;28;20038;-87
2021/04/08 11:01:43;;;;;;;5.35;3.17;;;8.50;58.60;;;;;;4962282;28;20034;-88
2021/04/08 11:04:08;;;;;;;6.57;3.00;;;8.70;59.50;;;;;;4975757;28;20406;-86
2021/04/08 11:06:34;;;;;;;9.20;3.97;;;8.60;61.10;;;;;;4971004;28;20023;-89
2021/04/08 11:08:59;;;;;;;11.77;3.50;;;8.70;59.70;;;;;;5005886;28;20486;-86
2021/04/08 11:11:25;;;;;;;6.03;3.50;;;8.80;57.40;;;;;;4976005;28;20022;-88
2021/04/08 11:13:51;;;;;;;8.77;3.75;;;8.80;55.50;;;;;;4993418;28;20031;-87
2021/04/08 11:16:17;;;;;;;7.72;3.72;;;8.70;56.40;;;;;;4974051;28;20379;-87
2021/04/08 11:18:43;;;;;;;12.25;3.50;;;8.70;56.30;;;;;;4990117;28;20041;-85
2021/04/08 11:21:09;;;;;;;5.00;3.20;;;8.70;57.10;;;;;;4991385;28;20032;-86
2021/04/08 11:23:34;;;;;;;11.77;3.53;;;8.70;58.70;;;;;;4973002;28;20095;-86
2021/04/08 11:26:05;;;;;;;7.00;3.78;;;8.70;59.70;;;;;;4986375;28;20023;-86
2021/04/08 11:28:31;;;;;;;6.75;3.53;;;8.80;56.40;;;;;;4984599;28;20027;-87
2021/04/08 11:30:57;;;;;;;8.43;3.85;;;8.80;58.10;;;;;;4992137;28;20030;-87
2021/04/08 11:33:24;;;;;;;10.63;4.18;;;8.90;56.70;;;;;;4992320;28;20036;-86
2021/04/08 11:35:50;;;;;;;7.82;4.75;;;8.80;54.30;;;;;;4993070;28;20109;-86
2021/04/08 11:38:21;;;;;;;7.65;4.40;;;8.90;54.90;;;;;;4991811;28;20051;-86
2021/04/08 11:40:51;;;;;;;8.32;4.32;;;8.90;55.60;;;;;;4972508;28;20101;-86
2021/04/08 11:43:40;;;;;;;7.65;4.43;;;8.90;57.60;;;;;;4985393;28;20049;-87
2021/04/08 11:46:21;;;;;;;8.25;3.72;;;8.90;57.50;;;;;;4983426;28;20030;-86
2021/04/08 11:48:47;;;;;;;7.80;4.50;;;9.00;57.10;;;;;;4993699;28;20038;-86
2021/04/08 11:51:13;;;;;;;7.60;4.10;;;9.00;57.70;;;;;;4972604;28;20033;-85
2021/04/08 11:53:43;;;;;;;10.30;4.43;;;9.10;57.20;;;;;;4991838;28;20383;-86
2021/04/08 11:56:28;;;;;;;7.43;4.13;;;9.10;56.40;;;;;;4992538;28;20025;-87
2021/04/08 11:59:15;;;;;;;9.35;4.20;;;9.10;57.00;;;;;;4979935;28;20045;-86
2021/04/08 12:01:48;;;;;;;7.15;4.03;;;9.10;54.50;;;;;;4978244;28;20014;-87
2021/04/08 12:04:22;;;;;;;6.80;4.68;;;9.10;56.60;;;;;;4991524;28;20446;-86
2021/04/08 12:07:04;;;;;;;6.65;4.45;;;9.10;56.00;;;;;;4993046;28;20430;-86
2021/04/08 12:09:38;;;;;;;8.25;4.95;;;9.20;56.50;;;;;;4990838;28;20066;-87
2021/04/08 12:12:05;;;;;;;6.95;4.60;;;9.20;55.70;;;;;;4992243;28;20478;-85
2021/04/08 12:14:50;;;;;;;8.57;4.63;;;9.20;55.40;;;;;;4971832;28;20022;-86
2021/04/08 12:17:16;;;;;;;9.20;4.55;;;9.20;57.80;;;;;;4991650;28;20134;-86
2021/04/08 12:19:42;;;;;;;8.45;4.45;;;9.20;54.50;;;;;;4970566;28;20476;-86
2021/04/08 12:22:11;;;;;;;8.73;5.60;;;9.20;54.20;;;;;;4974045;28;20034;-86
2021/04/08 12:24:37;;;;;;;8.50;4.80;;;9.20;54.60;;;;;;4991502;28;20042;-88
2021/04/08 12:27:15;;;;;;;8.13;4.38;;;9.20;56.60;;;;;;4990136;28;20573;-85
2021/04/08 12:29:41;;;;;;;11.50;4.60;;;9.30;58.00;;;;;;4992261;28;20117;-86
2021/04/08 12:32:07;;;;;;;7.18;4.63;;;9.40;59.00;;;;;;4973077;28;20034;-90
2021/04/08 12:34:33;;;;;;;8.32;5.05;;;9.60;58.60;;;;;;4983294;28;20414;-87
2021/04/08 12:36:59;;;;;;;14.90;5.45;;;9.50;55.80;;;;;;4991778;28;20038;-87
2021/04/08 12:39:27;;;;;;;7.75;5.57;;;9.60;53.10;;;;;;4975160;28;20137;-87
2021/04/08 12:41:57;;;;;;;10.25;5.80;;;9.50;52.10;;;;;;4991351;28;20121;-88
2021/04/08 12:44:23;;;;;;;11.80;5.53;;;9.40;54.20;;;;;;4993417;28;20073;-87
2021/04/08 12:46:49;;;;;;;10.85;5.63;;;9.30;53.80;;;;;;4972978;28;20039;-86
2021/04/08 12:49:15;;;;;;;7.53;5.07;;;9.30;55.60;;;;;;5009565;28;20030;-88
2021/04/08 12:51:40;;;;;;;12.35;6.00;;;9.30;54.60;;;;;;4968663;28;20487;-88
2021/04/08 12:54:06;;;;;;;9.02;6.13;;;9.20;55.90;;;;;;4995773;28;20031;-88
2021/04/08 12:56:32;;;;;;;9.02;5.40;;;9.20;57.20;;;;;;4987820;28;20042;-87
2021/04/08 12:58:57;;;;;;;8.68;5.18;;;9.30;57.40;;;;;;4974088;28;20043;-87
2021/04/08 13:01:23;;;;;;;7.90;5.50;;;9.40;55.40;;;;;;4964045;28;20023;-87
2021/04/08 13:03:48;;;;;;;9.43;5.53;;;9.50;54.10;;;;;;4981789;28;20340;-85
2021/04/08 13:06:15;;;;;;;10.80;5.45;;;9.40;54.00;;;;;;4972540;28;20098;-85